Time;durP1;ratioP1;P1;durP2;ratioP2;P2;SDS_P1;SDS_P2;PMS_P1;PMS_P2;Temp;Humidity;BMP_temperature;BMP_pressure;BME280_temperature;BME280_humidity;BME280_pressure;Samples;Min_cycle;Max_cycle;Signal;HPM_P1;HPM_P2
2022/11/11 00:00:33;;;;;;;9.98;4.43;;;10.90;99.90;;;;;;5024327;28;20112;-70
2022/11/11 00:02:58;;;;;;;14.23;5.13;;;10.90;99.90;;;;;;5023938;28;20033;-68
2022/11/11 00:05:25;;;;;;;16.48;5.47;;;11.00;99.90;;;;;;5022815;28;20041;-69
2022/11/11 00:07:58;;;;;;;13.05;5.28;;;10.90;99.90;;;;;;5024142;28;20497;-70
2022/11/11 00:10:28;;;;;;;17.15;5.45;;;11.00;99.90;;;;;;5023985;28;20191;-68
2022/11/11 00:13:00;;;;;;;13.98;5.57;;;11.00;99.90;;;;;;5023582;28;20067;-68
2022/11/11 00:15:27;;;;;;;25.23;5.07;;;11.00;99.90;;;;;;5021981;28;20410;-69
2022/11/11 00:26:09;;;;;;;13.98;5.85;;;11.00;99.90;;;;;;5024424;28;20059;-69
2022/11/11 00:28:34;;;;;;;14.40;5.95;;;11.10;99.90;;;;;;5022784;28;20045;-70
2022/11/11 00:31:05;;;;;;;14.38;6.75;;;11.10;99.90;;;;;;5024701;28;20091;-70
2022/11/11 00:33:31;;;;;;;20.27;5.82;;;11.10;99.90;;;;;;5023503;28;20107;-69
2022/11/11 00:35:57;;;;;;;13.05;5.80;;;11.10;99.90;;;;;;5023164;28;20564;-69
2022/11/11 00:41:07;;;;;;;15.02;6.68;;;11.10;99.90;;;;;;5025019;28;20048;-69
2022/11/11 00:43:33;;;;;;;14.95;6.38;;;11.10;99.90;;;;;;5021483;28;20041;-69
2022/11/11 00:51:27;;;;;;;14.63;6.97;;;11.00;99.90;;;;;;5022028;28;20036;-70
2022/11/11 00:53:53;;;;;;;12.88;6.60;;;11.00;99.90;;;;;;5023217;28;20124;-70
2022/11/11 00:56:19;;;;;;;12.98;6.20;;;11.00;99.90;;;;;;5023901;28;20037;-69
2022/11/11 00:58:45;;;;;;;17.83;6.72;;;11.00;99.90;;;;;;5022637;28;20034;-68
2022/11/11 01:01:10;;;;;;;18.58;7.30;;;11.00;99.90;;;;;;5019570;28;20033;-68
2022/11/11 01:03:36;;;;;;;16.02;6.93;;;11.00;99.90;;;;;;5024589;28;20026;-69
2022/11/11 01:06:03;;;;;;;15.38;6.25;;;11.00;99.90;;;;;;5028406;28;20140;-69
2022/11/11 01:08:30;;;;;;;17.85;6.63;;;11.00;99.90;;;;;;5027426;28;20091;-71
2022/11/11 01:10:55;;;;;;;17.30;6.82;;;10.90;99.90;;;;;;5026719;28;20103;-69
2022/11/11 01:13:27;;;;;;;17.52;8.10;;;10.90;99.90;;;;;;5027345;28;20383;-71
2022/11/11 01:16:00;;;;;;;16.70;6.10;;;11.00;99.90;;;;;;5028102;28;20107;-69
2022/11/11 01:18:27;;;;;;;19.70;8.43;;;10.90;99.90;;;;;;5027588;28;20029;-69
2022/11/11 01:21:02;;;;;;;14.35;6.50;;;11.00;99.90;;;;;;5026848;28;20037;-70
2022/11/11 01:23:29;;;;;;;19.60;6.80;;;11.00;99.90;;;;;;5025103;28;20075;-70
2022/11/11 01:26:04;;;;;;;19.25;7.97;;;10.90;99.90;;;;;;5026517;28;20064;-70
2022/11/11 01:28:30;;;;;;;24.48;8.40;;;11.00;99.90;;;;;;5026985;28;20030;-69
2022/11/11 01:31:01;;;;;;;18.88;7.97;;;10.90;99.90;;;;;;5026303;28;20378;-69
2022/11/11 01:33:26;;;;;;;16.40;7.28;;;11.00;99.90;;;;;;5026654;28;20037;-68
2022/11/11 01:35:52;;;;;;;20.73;7.13;;;10.90;99.90;;;;;;5028188;28;20045;-69
2022/11/11 01:38:17;;;;;;;15.13;6.68;;;10.90;99.90;;;;;;5027035;28;20037;-69
2022/11/11 01:40:45;;;;;;;15.85;7.88;;;10.90;99.90;;;;;;5026970;28;20033;-69
2022/11/11 01:43:10;;;;;;;13.73;7.45;;;10.90;99.90;;;;;;5026267;28;20029;-70
2022/11/11 01:45:50;;;;;;;16.08;6.85;;;10.80;99.90;;;;;;5025006;28;20489;-69
2022/11/11 01:51:38;;;;;;;16.00;7.43;;;10.80;99.90;;;;;;5026485;28;20051;-69
2022/11/11 01:54:09;;;;;;;16.20;7.45;;;10.80;99.90;;;;;;5026886;28;20038;-69
2022/11/11 01:56:36;;;;;;;14.20;7.22;;;10.80;99.90;;;;;;5025966;28;20065;-69
2022/11/11 01:59:08;;;;;;;18.23;8.80;;;10.80;99.90;;;;;;5027647;28;20045;-70
2022/11/11 02:01:34;;;;;;;19.38;9.82;;;10.70;99.90;;;;;;5025120;28;20034;-69
2022/11/11 02:06:48;;;;;;;19.70;8.40;;;10.60;99.90;;;;;;5024040;28;20047;-71
2022/11/11 02:09:14;;;;;;;17.90;8.82;;;10.60;99.90;;;;;;5027066;28;20043;-70
2022/11/11 02:14:35;;;;;;;22.27;7.88;;;10.50;99.90;;;;;;5023235;28;20056;-69
2022/11/11 02:17:04;;;;;;;21.60;7.85;;;10.50;99.90;;;;;;5027082;28;20049;-69
2022/11/11 02:19:49;;;;;;;15.48;7.65;;;10.50;99.90;;;;;;5026516;28;20033;-70
2022/11/11 02:22:41;;;;;;;24.45;10.20;;;10.50;99.90;;;;;;5022558;28;20124;-69
2022/11/11 02:25:10;;;;;;;19.23;8.63;;;10.40;99.90;;;;;;5014571;28;20049;-70
2022/11/11 02:27:40;;;;;;;21.67;9.88;;;10.40;99.90;;;;;;5021473;28;20041;-70
2022/11/11 02:30:14;;;;;;;23.58;9.70;;;10.30;99.90;;;;;;5025530;28;20029;-69
2022/11/11 02:32:40;;;;;;;23.83;8.98;;;10.30;99.90;;;;;;5016958;28;20041;-69
2022/11/11 02:35:19;;;;;;;19.17;8.43;;;10.30;99.90;;;;;;5021004;28;20033;-69
2022/11/11 02:37:49;;;;;;;17.05;8.57;;;10.30;99.90;;;;;;5023244;28;20519;-69
2022/11/11 02:41:55;;;;;;;22.05;9.55;;;10.30;99.90;;;;;;5024815;28;20690;-69
2022/11/11 02:43:23;;;;;;;18.67;8.30;;;10.30;99.90;;;;;;5024477;28;20037;-72
2022/11/11 02:45:49;;;;;;;21.60;9.73;;;10.30;99.90;;;;;;5025272;28;20382;-68
2022/11/11 02:48:15;;;;;;;19.52;8.50;;;10.30;99.90;;;;;;5026912;28;20030;-68
2022/11/11 02:50:40;;;;;;;21.35;9.32;;;10.30;99.90;;;;;;5026468;28;20611;-68
2022/11/11 02:53:06;;;;;;;23.33;9.07;;;10.30;99.90;;;;;;5026870;28;20037;-70
2022/11/11 02:55:31;;;;;;;14.10;7.18;;;10.20;99.90;;;;;;5024127;28;20109;-69
2022/11/11 02:57:57;;;;;;;23.95;8.93;;;10.20;99.90;;;;;;5026880;28;20370;-69
2022/11/11 03:00:22;;;;;;;21.65;9.45;;;10.20;99.90;;;;;;5025469;28;20394;-70
2022/11/11 03:02:48;;;;;;;21.92;8.68;;;10.20;99.90;;;;;;5025721;28;20197;-69
2022/11/11 03:05:14;;;;;;;21.17;8.40;;;10.20;99.90;;;;;;5026573;28;20120;-70
2022/11/11 03:07:39;;;;;;;14.65;7.57;;;10.30;99.90;;;;;;5025865;28;20045;-69
2022/11/11 03:10:05;;;;;;;21.83;8.55;;;10.20;99.90;;;;;;5025514;28;20083;-69
2022/11/11 03:12:31;;;;;;;21.25;8.82;;;10.20;99.90;;;;;;5025523;28;20033;-69
2022/11/11 03:14:56;;;;;;;20.33;8.43;;;10.20;99.90;;;;;;5026708;28;20068;-72
2022/11/11 03:17:40;;;;;;;20.73;8.20;;;10.30;99.90;;;;;;5026221;28;20040;-70
2022/11/11 03:23:07;;;;;;;21.38;8.90;;;10.30;99.90;;;;;;5022368;28;20056;-69
2022/11/11 03:25:37;;;;;;;18.15;8.77;;;10.30;99.90;;;;;;5015746;28;20048;-69
2022/11/11 03:28:11;;;;;;;18.40;8.63;;;10.20;99.90;;;;;;5021074;28;20042;-69
2022/11/11 03:30:39;;;;;;;18.88;8.35;;;10.30;99.90;;;;;;5022186;28;20117;-70
2022/11/11 03:33:05;;;;;;;18.23;8.68;;;10.30;99.90;;;;;;5026034;28;20124;-69
2022/11/11 03:35:31;;;;;;;24.75;10.05;;;10.20;99.90;;;;;;5023432;28;20537;-69
2022/11/11 03:38:15;;;;;;;21.15;9.13;;;10.20;99.90;;;;;;5024860;28;20113;-69
2022/11/11 03:40:47;;;;;;;22.83;9.27;;;10.20;99.90;;;;;;5021368;28;20025;-69
2022/11/11 03:43:15;;;;;;;21.95;8.80;;;10.20;99.90;;;;;;5024176;28;20459;-69
2022/11/11 03:45:41;;;;;;;18.38;8.98;;;10.20;99.90;;;;;;5024877;28;20033;-71
2022/11/11 03:48:07;;;;;;;15.85;7.57;;;10.20;99.90;;;;;;5025324;28;20040;-68
2022/11/11 03:50:33;;;;;;;22.65;8.88;;;10.20;99.90;;;;;;5023695;28;20033;-69
2022/11/11 03:52:59;;;;;;;27.55;10.05;;;10.20;99.90;;;;;;5023807;28;20053;-69
2022/11/11 03:55:25;;;;;;;18.88;8.27;;;10.10;99.90;;;;;;5024858;28;20030;-69
2022/11/11 03:57:51;;;;;;;18.75;8.65;;;10.20;99.90;;;;;;5023870;28;20056;-69
2022/11/11 04:00:23;;;;;;;17.08;8.10;;;10.10;99.90;;;;;;5025672;28;20120;-70
2022/11/11 04:11:11;;;;;;;16.48;8.50;;;10.20;99.90;;;;;;5021961;28;20500;-69
2022/11/11 04:16:23;;;;;;;16.52;7.93;;;10.30;99.90;;;;;;5024944;28;20075;-68
2022/11/11 04:21:42;;;;;;;19.63;7.95;;;10.40;99.90;;;;;;5024571;28;20666;-69
2022/11/11 04:27:03;;;;;;;20.98;7.97;;;10.50;99.90;;;;;;5020947;28;20048;-71
2022/11/11 04:29:30;;;;;;;16.67;8.10;;;10.40;99.90;;;;;;5018995;28;20033;-69
2022/11/11 04:34:42;;;;;;;19.83;7.97;;;10.50;99.90;;;;;;5021929;28;20044;-69
2022/11/11 04:37:08;;;;;;;21.33;8.55;;;10.40;99.90;;;;;;5023522;28;20033;-71
2022/11/11 04:42:18;;;;;;;17.35;7.80;;;10.40;99.90;;;;;;5029031;28;20492;-70
2022/11/11 04:47:27;;;;;;;15.15;8.05;;;10.40;99.90;;;;;;5028357;28;20049;-68
2022/11/11 04:49:53;;;;;;;14.82;8.00;;;10.40;99.90;;;;;;5029103;28;20401;-70
2022/11/11 04:52:25;;;;;;;15.07;7.07;;;10.30;99.90;;;;;;5027032;28;20099;-70
2022/11/11 04:57:45;;;;;;;17.42;7.90;;;10.30;99.90;;;;;;5025960;28;20057;-69
2022/11/11 05:00:14;;;;;;;16.17;8.38;;;10.20;99.90;;;;;;5028898;28;20437;-69
2022/11/11 05:05:24;;;;;;;19.90;8.05;;;10.10;99.90;;;;;;5028052;28;20048;-69
2022/11/11 05:10:35;;;;;;;14.30;7.75;;;9.90;99.90;;;;;;5025760;28;20084;-69
2022/11/11 05:21:21;;;;;;;20.35;7.90;;;9.90;99.90;;;;;;5028939;28;20081;-68
2022/11/11 05:26:31;;;;;;;21.27;7.50;;;9.80;99.90;;;;;;5024885;28;20068;-70
2022/11/11 05:28:57;;;;;;;15.00;7.15;;;9.80;99.90;;;;;;5029157;28;20053;-69
2022/11/11 05:31:22;;;;;;;18.85;8.73;;;9.80;99.90;;;;;;5028061;28;20541;-69
2022/11/11 05:33:48;;;;;;;19.67;7.38;;;9.70;99.90;;;;;;5026032;28;20033;-69
2022/11/11 05:36:13;;;;;;;17.00;7.88;;;9.70;99.90;;;;;;5027303;28;20068;-70
2022/11/11 05:38:39;;;;;;;15.25;6.35;;;9.70;99.90;;;;;;5026076;28;20052;-69
2022/11/11 05:41:06;;;;;;;15.35;6.43;;;9.70;99.90;;;;;;5026870;28;20040;-69
2022/11/11 05:43:31;;;;;;;16.17;6.70;;;9.70;99.90;;;;;;5027291;28;20045;-68
2022/11/11 05:45:57;;;;;;;17.80;7.38;;;9.70;99.90;;;;;;5028766;28;20398;-69
2022/11/11 05:48:22;;;;;;;22.35;7.43;;;9.60;99.90;;;;;;5026986;28;20104;-70
2022/11/11 05:50:48;;;;;;;16.25;6.90;;;9.60;99.90;;;;;;5026404;28;20049;-70
2022/11/11 05:53:14;;;;;;;15.27;6.13;;;9.60;99.90;;;;;;5026729;28;20033;-69
2022/11/11 05:55:40;;;;;;;16.13;6.75;;;9.60;99.90;;;;;;5027254;28;20029;-69
2022/11/11 05:58:05;;;;;;;14.13;6.90;;;9.60;99.90;;;;;;5027885;28;20507;-70
2022/11/11 06:00:31;;;;;;;13.40;5.75;;;9.50;99.90;;;;;;5026004;28;20041;-69
2022/11/11 06:03:04;;;;;;;14.13;6.75;;;9.50;99.90;;;;;;5028217;28;20021;-70
2022/11/11 06:05:30;;;;;;;12.65;6.78;;;9.50;99.90;;;;;;5022264;28;20053;-69
2022/11/11 06:07:59;;;;;;;13.57;5.97;;;9.50;99.90;;;;;;5028598;28;20049;-69
2022/11/11 06:10:30;;;;;;;16.10;6.13;;;9.50;99.90;;;;;;5024252;28;20092;-70
2022/11/11 06:13:04;;;;;;;15.40;5.95;;;9.50;99.90;;;;;;5018914;28;20048;-70
2022/11/11 06:15:34;;;;;;;16.13;6.07;;;9.50;99.90;;;;;;5021562;28;20029;-69
2022/11/11 06:18:01;;;;;;;15.45;6.15;;;9.50;99.90;;;;;;5028080;28;20551;-68
2022/11/11 06:20:26;;;;;;;13.75;5.90;;;9.50;99.90;;;;;;5027037;28;20033;-72
2022/11/11 06:22:55;;;;;;;17.40;5.70;;;9.50;99.90;;;;;;5026127;28;20157;-68
2022/11/11 06:28:05;;;;;;;13.25;5.82;;;9.60;99.90;;;;;;5024849;28;20076;-69
2022/11/11 06:30:31;;;;;;;10.60;5.53;;;9.70;99.90;;;;;;5024703;28;20474;-71
2022/11/11 06:32:56;;;;;;;11.85;5.35;;;9.70;99.90;;;;;;5027797;28;20041;-68
2022/11/11 06:35:22;;;;;;;14.27;5.78;;;9.70;99.90;;;;;;5025468;28;20033;-69
2022/11/11 06:37:47;;;;;;;12.77;6.10;;;9.70;99.90;;;;;;5027170;28;20654;-71
2022/11/11 06:40:13;;;;;;;13.52;6.82;;;9.80;99.90;;;;;;5025514;28;20034;-70
2022/11/11 06:42:39;;;;;;;16.67;6.53;;;9.80;99.90;;;;;;5024633;28;20041;-69
2022/11/11 06:45:05;;;;;;;13.20;6.60;;;9.80;99.90;;;;;;5026690;28;20044;-69
2022/11/11 06:47:30;;;;;;;16.38;6.47;;;9.90;99.90;;;;;;5025333;28;20065;-69
2022/11/11 06:49:56;;;;;;;15.88;6.72;;;9.90;99.90;;;;;;5026829;28;20091;-68
2022/11/11 06:52:21;;;;;;;13.25;6.30;;;9.90;99.90;;;;;;5026941;28;20048;-69
2022/11/11 06:54:47;;;;;;;14.38;5.97;;;9.90;99.90;;;;;;5026333;28;20033;-69
2022/11/11 06:57:12;;;;;;;12.65;5.28;;;10.00;99.90;;;;;;5025584;28;20128;-69
2022/11/11 06:59:38;;;;;;;17.38;6.38;;;10.00;99.90;;;;;;5024724;28;20065;-69
2022/11/11 07:02:03;;;;;;;13.30;6.50;;;10.00;99.90;;;;;;5024264;28;20033;-68
2022/11/11 07:04:29;;;;;;;14.23;6.90;;;10.00;99.90;;;;;;5024729;28;20576;-70
2022/11/11 07:06:55;;;;;;;16.33;6.78;;;10.00;99.90;;;;;;5024730;28;20124;-69
2022/11/11 07:09:22;;;;;;;15.23;6.90;;;9.90;99.90;;;;;;5026675;28;20049;-69
2022/11/11 07:11:47;;;;;;;14.70;7.03;;;10.00;99.90;;;;;;5024690;28;20485;-69
2022/11/11 07:14:13;;;;;;;15.80;7.15;;;10.00;99.90;;;;;;5024337;28;20060;-67
2022/11/11 07:16:39;;;;;;;14.82;6.13;;;9.90;99.90;;;;;;5023741;28;20131;-68
2022/11/11 07:19:04;;;;;;;13.27;6.15;;;10.00;99.90;;;;;;5026605;28;20052;-69
2022/11/11 07:21:30;;;;;;;17.52;6.38;;;10.10;99.90;;;;;;5026078;28;20430;-70
2022/11/11 07:23:55;;;;;;;16.40;6.85;;;10.00;99.90;;;;;;5024364;28;20455;-68
2022/11/11 07:26:21;;;;;;;16.95;7.38;;;10.10;99.90;;;;;;5025661;28;20041;-69
2022/11/11 07:28:49;;;;;;;16.77;6.63;;;10.10;99.90;;;;;;5024824;28;20037;-69
2022/11/11 07:31:15;;;;;;;12.20;5.85;;;10.00;99.90;;;;;;5023418;28;20076;-70
2022/11/11 07:33:40;;;;;;;18.63;5.75;;;10.00;99.90;;;;;;5023288;28;20572;-70
2022/11/11 07:36:06;;;;;;;18.73;6.15;;;9.90;99.90;;;;;;5024415;28;20521;-69
2022/11/11 07:38:31;;;;;;;13.93;6.80;;;10.00;99.90;;;;;;5025109;28;20045;-71
2022/11/11 07:40:57;;;;;;;16.85;6.30;;;10.00;99.90;;;;;;5023688;28;20776;-70
2022/11/11 07:43:24;;;;;;;11.48;5.60;;;10.00;99.90;;;;;;5025070;28;20331;-69
2022/11/11 07:45:50;;;;;;;12.77;5.60;;;10.00;99.90;;;;;;5024592;28;20025;-69
2022/11/11 07:48:15;;;;;;;16.50;6.35;;;10.00;99.90;;;;;;5024532;28;20048;-69
2022/11/11 07:50:41;;;;;;;14.18;5.47;;;10.00;99.90;;;;;;5024515;28;21541;-68
2022/11/11 07:53:06;;;;;;;12.82;6.15;;;10.00;99.90;;;;;;5023687;28;20079;-69
2022/11/11 07:55:32;;;;;;;16.13;5.78;;;10.10;99.90;;;;;;5023900;28;20025;-71
2022/11/11 07:57:58;;;;;;;12.05;5.05;;;10.10;99.90;;;;;;5025762;28;20046;-69
2022/11/11 08:00:23;;;;;;;11.85;5.40;;;10.10;99.90;;;;;;5024920;28;20508;-68
2022/11/11 08:02:49;;;;;;;10.95;5.40;;;10.10;99.90;;;;;;5024426;28;20564;-69
2022/11/11 08:05:15;;;;;;;16.25;6.10;;;10.20;99.90;;;;;;5025402;28;20081;-69
2022/11/11 08:07:43;;;;;;;11.98;5.05;;;10.10;99.90;;;;;;5024733;28;20038;-69
2022/11/11 08:10:10;;;;;;;13.02;4.85;;;10.20;99.90;;;;;;5024060;28;20044;-68
2022/11/11 08:15:20;;;;;;;9.35;4.65;;;10.20;99.90;;;;;;5021970;28;20113;-70
2022/11/11 08:17:46;;;;;;;11.43;4.68;;;10.20;99.90;;;;;;5023527;28;20132;-70
2022/11/11 08:20:12;;;;;;;9.38;4.68;;;10.20;99.90;;;;;;5024508;28;20501;-69
2022/11/11 08:22:39;;;;;;;15.02;5.22;;;10.20;99.90;;;;;;5023064;28;20390;-68
2022/11/11 08:25:07;;;;;;;12.60;4.90;;;10.20;99.90;;;;;;5019097;28;20041;-70
2022/11/11 08:27:33;;;;;;;14.57;5.32;;;10.30;99.90;;;;;;5021777;28;20095;-71
2022/11/11 08:29:58;;;;;;;15.50;6.18;;;10.20;99.90;;;;;;5022806;28;20034;-69
2022/11/11 08:32:24;;;;;;;10.93;5.05;;;10.20;99.90;;;;;;5023753;28;20052;-72
2022/11/11 08:34:50;;;;;;;12.27;5.75;;;10.20;99.90;;;;;;5023467;28;20041;-68
2022/11/11 08:37:15;;;;;;;13.85;5.88;;;10.20;99.90;;;;;;5024429;28;20073;-69
2022/11/11 08:39:41;;;;;;;13.93;5.97;;;10.20;99.90;;;;;;5017526;28;20038;-69
2022/11/11 08:42:06;;;;;;;16.75;5.20;;;10.30;99.90;;;;;;5014411;28;20545;-72
2022/11/11 08:44:32;;;;;;;12.85;6.90;;;10.30;99.90;;;;;;5017587;28;20033;-71
2022/11/11 08:46:58;;;;;;;15.80;6.88;;;10.30;99.90;;;;;;5016946;28;20038;-69
2022/11/11 08:49:23;;;;;;;18.13;7.10;;;10.30;99.90;;;;;;5014622;28;20061;-70
2022/11/11 08:51:49;;;;;;;18.35;7.75;;;10.30;99.90;;;;;;5019462;28;20029;-69
2022/11/11 08:54:15;;;;;;;16.40;7.18;;;10.30;99.90;;;;;;5018807;28;20045;-68
2022/11/11 08:56:41;;;;;;;15.05;7.30;;;10.40;99.90;;;;;;5016388;28;20049;-70
2022/11/11 08:59:08;;;;;;;16.48;6.85;;;10.40;99.90;;;;;;5014030;28;20033;-69
2022/11/11 09:01:34;;;;;;;15.32;6.47;;;10.50;99.90;;;;;;5015381;28;20032;-68
2022/11/11 09:04:00;;;;;;;13.23;6.95;;;10.40;99.90;;;;;;5015291;28;20029;-68
2022/11/11 09:06:27;;;;;;;12.48;6.80;;;10.40;99.90;;;;;;5015160;28;20152;-68
2022/11/11 09:08:53;;;;;;;18.10;6.82;;;10.50;99.90;;;;;;5019264;28;20422;-69
2022/11/11 09:11:18;;;;;;;13.68;7.22;;;10.50;99.90;;;;;;5016547;28;20029;-69
2022/11/11 09:13:46;;;;;;;14.77;6.47;;;10.50;99.90;;;;;;5020801;28;20715;-68
2022/11/11 09:16:11;;;;;;;15.70;7.13;;;10.50;99.90;;;;;;5020438;28;20532;-70
2022/11/11 09:18:37;;;;;;;11.52;6.13;;;10.60;99.90;;;;;;5022318;28;20049;-69
2022/11/11 09:21:03;;;;;;;13.57;7.03;;;10.50;99.90;;;;;;5022885;28;20132;-68
2022/11/11 09:23:29;;;;;;;19.40;7.18;;;10.60;99.90;;;;;;5022361;28;20025;-69
2022/11/11 09:25:56;;;;;;;21.60;7.25;;;10.60;99.90;;;;;;5027982;28;20053;-69
2022/11/11 09:28:22;;;;;;;15.52;7.25;;;10.60;99.90;;;;;;5027081;28;20069;-69
2022/11/11 09:30:48;;;;;;;12.25;6.68;;;10.60;99.90;;;;;;5026758;28;20053;-69
2022/11/11 09:33:17;;;;;;;16.10;7.22;;;10.60;99.90;;;;;;5026744;28;20028;-70
2022/11/11 09:35:42;;;;;;;18.50;7.20;;;10.60;99.90;;;;;;5019714;28;21938;-71
2022/11/11 09:38:08;;;;;;;21.10;7.72;;;10.60;99.90;;;;;;5019675;28;20044;-69
2022/11/11 09:40:45;;;;;;;17.65;7.07;;;10.60;99.90;;;;;;5019419;28;20052;-70
2022/11/11 09:43:49;;;;;;;15.48;6.88;;;10.60;99.90;;;;;;5016013;28;20033;-69
2022/11/11 09:46:36;;;;;;;14.77;6.60;;;10.60;99.90;;;;;;5021781;28;20037;-68
2022/11/11 09:49:37;;;;;;;16.60;6.82;;;10.60;99.90;;;;;;5024965;28;20034;-70
2022/11/11 09:52:13;;;;;;;16.98;7.95;;;10.70;99.90;;;;;;5022190;28;20088;-71
2022/11/11 09:54:49;;;;;;;20.17;6.72;;;10.70;99.90;;;;;;5023821;28;20080;-70
2022/11/11 09:57:23;;;;;;;13.10;6.45;;;10.70;99.90;;;;;;5022859;28;20567;-70
2022/11/11 09:59:53;;;;;;;18.65;6.63;;;10.70;99.90;;;;;;5025610;28;20564;-70
2022/11/11 10:02:42;;;;;;;16.13;6.70;;;10.70;99.90;;;;;;5025321;28;20042;-70
2022/11/11 10:05:14;;;;;;;16.15;6.93;;;10.80;99.90;;;;;;5023976;28;20021;-70
2022/11/11 10:07:44;;;;;;;15.75;7.22;;;10.80;99.90;;;;;;5019654;28;20041;-69
2022/11/11 10:10:26;;;;;;;16.65;7.05;;;10.90;99.90;;;;;;5019260;28;20117;-69
2022/11/11 10:13:01;;;;;;;21.80;6.63;;;10.90;99.90;;;;;;5022751;28;20041;-71
2022/11/11 10:15:40;;;;;;;15.57;6.88;;;10.90;99.90;;;;;;5023627;28;20112;-70
2022/11/11 10:18:28;;;;;;;13.35;6.07;;;10.90;99.90;;;;;;5021374;28;20045;-70
2022/11/11 10:20:55;;;;;;;16.63;6.40;;;10.90;99.90;;;;;;5025087;28;20041;-71
2022/11/11 10:23:35;;;;;;;15.23;6.60;;;11.00;99.90;;;;;;5024681;28;20044;-73
2022/11/11 10:26:14;;;;;;;13.13;6.30;;;11.00;99.90;;;;;;5024968;28;20374;-70
2022/11/11 10:28:44;;;;;;;12.23;6.90;;;11.10;99.90;;;;;;5016120;28;20116;-70
2022/11/11 10:31:15;;;;;;;16.45;7.28;;;11.10;99.90;;;;;;5019218;28;20029;-69
2022/11/11 10:34:01;;;;;;;13.70;6.93;;;11.10;99.90;;;;;;5020075;28;20041;-70
2022/11/11 10:36:29;;;;;;;14.73;6.82;;;11.20;99.90;;;;;;5022155;28;20037;-70
2022/11/11 10:39:00;;;;;;;14.10;6.18;;;11.20;99.90;;;;;;5023858;28;20036;-70
2022/11/11 10:41:49;;;;;;;15.02;5.93;;;11.30;99.90;;;;;;5024766;28;20030;-68
2022/11/11 10:44:36;;;;;;;13.55;5.80;;;11.30;99.90;;;;;;5022727;28;20044;-70
2022/11/11 10:47:16;;;;;;;11.60;5.85;;;11.30;99.90;;;;;;5025568;28;20410;-69
2022/11/11 10:49:56;;;;;;;15.45;7.10;;;11.20;99.90;;;;;;5018142;28;20037;-69
2022/11/11 10:52:31;;;;;;;16.48;7.22;;;11.30;99.90;;;;;;5023787;28;20708;-70
2022/11/11 10:55:06;;;;;;;13.43;6.70;;;11.30;99.90;;;;;;5024446;28;20432;-69
2022/11/11 10:57:45;;;;;;;22.80;7.03;;;11.30;99.90;;;;;;5023280;28;20033;-70
2022/11/11 11:00:13;;;;;;;16.65;7.18;;;11.40;99.90;;;;;;5025988;28;20042;-71
2022/11/11 11:02:48;;;;;;;15.45;6.95;;;11.40;99.90;;;;;;5024663;28;20036;-69
2022/11/11 11:05:41;;;;;;;15.70;7.50;;;11.50;99.90;;;;;;5011953;28;20535;-70
2022/11/11 11:08:48;;;;;;;14.70;7.82;;;11.50;99.90;;;;;;5013999;28;20041;-68
2022/11/11 11:11:28;;;;;;;15.82;7.30;;;11.50;99.90;;;;;;4987023;28;20039;-70
2022/11/11 11:13:59;;;;;;;17.60;7.50;;;11.60;99.90;;;;;;5012200;28;20084;-70
2022/11/11 11:16:37;;;;;;;14.85;7.07;;;11.60;99.90;;;;;;5008440;28;20038;-70
2022/11/11 11:19:22;;;;;;;16.00;8.48;;;11.60;99.90;;;;;;5011767;28;20034;-70
2022/11/11 11:21:55;;;;;;;16.25;7.63;;;11.60;99.90;;;;;;5017339;28;20054;-69
2022/11/11 11:24:26;;;;;;;14.32;7.63;;;11.60;99.90;;;;;;5018012;28;20405;-71
2022/11/11 11:26:58;;;;;;;18.65;7.70;;;11.60;99.90;;;;;;5016510;28;20862;-69
2022/11/11 11:29:31;;;;;;;15.38;7.47;;;11.50;99.90;;;;;;5015240;28;20037;-68
2022/11/11 11:32:10;;;;;;;15.45;7.43;;;11.50;99.90;;;;;;5017564;28;20510;-70
2022/11/11 11:34:53;;;;;;;15.73;7.38;;;11.50;99.90;;;;;;5013422;28;20401;-70
2022/11/11 11:37:23;;;;;;;14.13;7.00;;;11.60;99.90;;;;;;5018840;28;20675;-71
2022/11/11 11:40:03;;;;;;;15.40;7.88;;;11.50;99.90;;;;;;5020612;28;20529;-69
2022/11/11 11:42:36;;;;;;;14.02;6.80;;;11.60;99.90;;;;;;5015901;28;20472;-73
2022/11/11 11:45:23;;;;;;;12.95;6.47;;;11.60;99.90;;;;;;5019289;28;20092;-69
2022/11/11 11:48:01;;;;;;;14.68;7.13;;;11.50;99.90;;;;;;5016967;28;20046;-69
2022/11/11 11:50:35;;;;;;;12.50;6.38;;;11.60;99.90;;;;;;5018918;28;20034;-71
2022/11/11 11:53:37;;;;;;;15.15;7.22;;;11.60;99.90;;;;;;5019403;28;20406;-70
2022/11/11 11:56:12;;;;;;;12.18;6.43;;;11.60;99.90;;;;;;5017768;28;20045;-71
2022/11/11 11:58:56;;;;;;;11.88;6.20;;;11.60;99.90;;;;;;5018909;28;20125;-70
2022/11/11 12:01:57;;;;;;;12.88;5.45;;;11.70;99.90;;;;;;5019721;28;20037;-69
2022/11/11 12:04:59;;;;;;;15.52;6.00;;;11.70;99.90;;;;;;5014379;28;20034;-70
2022/11/11 12:07:36;;;;;;;14.98;5.80;;;11.70;99.90;;;;;;5012120;28;20052;-71
2022/11/11 12:10:27;;;;;;;14.02;5.78;;;11.70;99.90;;;;;;5007523;28;20034;-71
2022/11/11 12:13:34;;;;;;;11.75;5.22;;;11.60;99.90;;;;;;5017572;28;20037;-70
2022/11/11 12:16:44;;;;;;;10.05;5.00;;;11.60;99.90;;;;;;4988760;28;20681;-69
2022/11/11 12:19:09;;;;;;;15.38;5.15;;;11.60;99.90;;;;;;4986889;28;20177;-71
2022/11/11 12:21:50;;;;;;;10.65;5.43;;;11.60;99.90;;;;;;5016456;28;20041;-68
2022/11/11 12:24:38;;;;;;;15.32;5.05;;;11.50;99.90;;;;;;5016620;28;20103;-72
2022/11/11 12:27:13;;;;;;;9.70;5.00;;;11.60;99.90;;;;;;5018430;28;20044;-70
2022/11/11 12:29:44;;;;;;;9.70;4.25;;;11.70;99.90;;;;;;5013650;28;20285;-70
2022/11/11 12:32:37;;;;;;;11.48;5.10;;;11.70;99.90;;;;;;5021456;28;20031;-69
2022/11/11 12:35:40;;;;;;;13.68;5.15;;;11.70;99.90;;;;;;5017337;28;20140;-70
2022/11/11 12:38:19;;;;;;;10.80;5.07;;;11.70;99.90;;;;;;5022730;28;20049;-69
2022/11/11 12:40:56;;;;;;;12.32;4.65;;;11.70;99.90;;;;;;5018770;28;20041;-71
2022/11/11 12:43:44;;;;;;;16.98;6.38;;;11.80;99.90;;;;;;5022051;28;20137;-70
2022/11/11 12:46:24;;;;;;;12.80;5.60;;;11.80;99.90;;;;;;5018893;28;20037;-70
2022/11/11 12:49:41;;;;;;;12.90;4.85;;;11.90;99.90;;;;;;5022039;28;20057;-69
2022/11/11 12:52:15;;;;;;;13.77;4.90;;;12.10;99.90;;;;;;4999307;28;20473;-70
2022/11/11 12:54:59;;;;;;;8.45;4.43;;;12.10;99.90;;;;;;5022057;28;20026;-69
2022/11/11 12:57:53;;;;;;;8.50;4.25;;;12.20;99.90;;;;;;5016094;28;20367;-69
2022/11/11 13:00:20;;;;;;;14.77;4.55;;;12.20;99.90;;;;;;5019661;28;20064;-70
2022/11/11 13:03:24;;;;;;;10.85;4.50;;;12.20;99.90;;;;;;5015022;28;20054;-70
2022/11/11 13:06:11;;;;;;;7.30;3.80;;;12.30;99.90;;;;;;5020275;28;20040;-69
2022/11/11 13:09:02;;;;;;;7.70;3.60;;;12.40;99.90;;;;;;5020463;28;20041;-70
2022/11/11 13:11:39;;;;;;;8.13;3.40;;;12.40;99.90;;;;;;5023584;28;20037;-70
2022/11/11 13:14:24;;;;;;;6.72;3.13;;;12.50;99.90;;;;;;5022722;28;20063;-71
2022/11/11 13:16:51;;;;;;;7.93;3.53;;;12.50;99.90;;;;;;5025186;28;20049;-71
2022/11/11 13:19:23;;;;;;;8.90;3.58;;;12.50;99.90;;;;;;5025820;28;20382;-70
2022/11/11 13:21:55;;;;;;;7.70;3.40;;;12.50;99.90;;;;;;5025682;28;21040;-70
2022/11/11 13:24:22;;;;;;;6.10;3.38;;;12.60;99.90;;;;;;5023671;28;20048;-69
2022/11/11 13:27:02;;;;;;;16.45;3.65;;;12.60;99.90;;;;;;5024196;28;20068;-70
2022/11/11 13:29:55;;;;;;;11.00;3.83;;;12.50;99.90;;;;;;5014949;28;20045;-71
2022/11/11 13:32:26;;;;;;;6.55;3.35;;;12.50;99.90;;;;;;5019770;28;20776;-69
2022/11/11 13:34:52;;;;;;;9.43;3.38;;;12.60;99.90;;;;;;5019370;28;20108;-69
2022/11/11 13:37:27;;;;;;;6.35;3.00;;;12.60;99.90;;;;;;5020037;28;20075;-69
2022/11/11 13:40:01;;;;;;;5.90;3.15;;;12.60;99.90;;;;;;5018073;28;20033;-69
2022/11/11 13:42:36;;;;;;;11.25;3.40;;;12.60;99.90;;;;;;5020721;28;20095;-68
2022/11/11 13:45:04;;;;;;;7.72;3.15;;;12.60;99.90;;;;;;5021549;28;20030;-69
2022/11/11 13:47:35;;;;;;;8.05;2.85;;;12.60;99.90;;;;;;5022510;28;20040;-69
2022/11/11 13:50:08;;;;;;;9.65;2.58;;;12.70;99.90;;;;;;5019862;28;20129;-68
2022/11/11 13:52:37;;;;;;;6.20;2.20;;;12.60;99.90;;;;;;5024425;28;20040;-71
2022/11/11 13:55:07;;;;;;;11.45;2.85;;;12.50;99.90;;;;;;5026844;28;20052;-68
2022/11/11 13:57:41;;;;;;;5.47;2.13;;;12.50;99.90;;;;;;5025936;28;20076;-68
2022/11/11 14:00:16;;;;;;;7.28;2.70;;;12.50;99.90;;;;;;5027074;28;20091;-70
2022/11/11 14:02:42;;;;;;;13.40;2.60;;;12.50;99.90;;;;;;5024271;28;20091;-69
2022/11/11 14:05:08;;;;;;;10.13;2.75;;;12.50;99.90;;;;;;5022599;28;20401;-69
2022/11/11 14:07:48;;;;;;;6.63;2.60;;;12.50;99.90;;;;;;5025093;28;20037;-68
2022/11/11 14:10:16;;;;;;;7.18;3.22;;;12.50;99.90;;;;;;5025746;28;20145;-69
2022/11/11 14:12:49;;;;;;;6.40;2.50;;;12.40;99.90;;;;;;5023429;28;20449;-69
2022/11/11 14:15:37;;;;;;;11.60;3.10;;;12.40;99.90;;;;;;5023234;28;20034;-70
2022/11/11 14:18:09;;;;;;;11.40;3.05;;;12.40;99.90;;;;;;5016318;28;20034;-68